sensor_id;sensor_type;location;lat;lon;timestamp;P1;durP1;ratioP1;P2;durP2;ratioP2
5539;SDS011;2792;52.452;9.752;2023-06-26T00:01:03;9.93;;;8.33;;
5539;SDS011;2792;52.452;9.752;2023-06-26T00:03:31;9.77;;;8.13;;
5539;SDS011;2792;52.452;9.752;2023-06-26T00:05:58;9.50;;;8.60;;
5539;SDS011;2792;52.452;9.752;2023-06-26T00:08:25;9.67;;;8.30;;
5539;SDS011;2792;52.452;9.752;2023-06-26T00:10:53;9.97;;;9.00;;
5539;SDS011;2792;52.452;9.752;2023-06-26T00:13:20;12.20;;;9.80;;
5539;SDS011;2792;52.452;9.752;2023-06-26T00:15:46;10.17;;;9.13;;
5539;SDS011;2792;52.452;9.752;2023-06-26T00:18:13;10.10;;;9.10;;
5539;SDS011;2792;52.452;9.752;2023-06-26T00:20:39;8.33;;;7.60;;
5539;SDS011;2792;52.452;9.752;2023-06-26T00:23:06;11.23;;;9.90;;
5539;SDS011;2792;52.452;9.752;2023-06-26T00:25:32;11.30;;;9.47;;
5539;SDS011;2792;52.452;9.752;2023-06-26T00:28:00;12.10;;;10.27;;
5539;SDS011;2792;52.452;9.752;2023-06-26T00:30:27;9.60;;;8.70;;
5539;SDS011;2792;52.452;9.752;2023-06-26T00:32:53;10.90;;;9.53;;
5539;SDS011;2792;52.452;9.752;2023-06-26T00:35:20;11.03;;;8.70;;
5539;SDS011;2792;52.452;9.752;2023-06-26T00:37:46;10.77;;;9.67;;
5539;SDS011;2792;52.452;9.752;2023-06-26T00:40:13;9.87;;;8.70;;
5539;SDS011;2792;52.452;9.752;2023-06-26T00:42:39;9.70;;;8.70;;
5539;SDS011;2792;52.452;9.752;2023-06-26T00:45:08;9.80;;;8.80;;
5539;SDS011;2792;52.452;9.752;2023-06-26T00:47:34;10.20;;;9.20;;
5539;SDS011;2792;52.452;9.752;2023-06-26T00:50:01;11.03;;;9.20;;
5539;SDS011;2792;52.452;9.752;2023-06-26T00:52:27;11.67;;;10.47;;
5539;SDS011;2792;52.452;9.752;2023-06-26T00:54:54;10.70;;;9.60;;
5539;SDS011;2792;52.452;9.752;2023-06-26T00:57:21;10.07;;;9.07;;
5539;SDS011;2792;52.452;9.752;2023-06-26T00:59:48;9.63;;;8.60;;
5539;SDS011;2792;52.452;9.752;2023-06-26T01:02:16;10.10;;;9.10;;
5539;SDS011;2792;52.452;9.752;2023-06-26T01:04:45;9.00;;;8.10;;
5539;SDS011;2792;52.452;9.752;2023-06-26T01:07:12;10.27;;;9.27;;
5539;SDS011;2792;52.452;9.752;2023-06-26T01:09:39;9.73;;;8.73;;
5539;SDS011;2792;52.452;9.752;2023-06-26T01:12:06;9.33;;;8.20;;
5539;SDS011;2792;52.452;9.752;2023-06-26T01:14:33;11.10;;;9.60;;
5539;SDS011;2792;52.452;9.752;2023-06-26T01:17:00;12.40;;;8.47;;
5539;SDS011;2792;52.452;9.752;2023-06-26T01:19:29;10.53;;;9.43;;
5539;SDS011;2792;52.452;9.752;2023-06-26T01:22:00;10.10;;;9.03;;
5539;SDS011;2792;52.452;9.752;2023-06-26T01:24:32;10.03;;;8.23;;
5539;SDS011;2792;52.452;9.752;2023-06-26T01:27:03;10.00;;;8.97;;
5539;SDS011;2792;52.452;9.752;2023-06-26T01:29:30;10.60;;;8.63;;
5539;SDS011;2792;52.452;9.752;2023-06-26T01:31:58;10.60;;;9.20;;
5539;SDS011;2792;52.452;9.752;2023-06-26T01:34:25;11.77;;;8.90;;
5539;SDS011;2792;52.452;9.752;2023-06-26T01:36:52;9.37;;;8.43;;
5539;SDS011;2792;52.452;9.752;2023-06-26T01:39:18;10.63;;;9.17;;
5539;SDS011;2792;52.452;9.752;2023-06-26T01:41:45;8.50;;;7.67;;
5539;SDS011;2792;52.452;9.752;2023-06-26T01:44:16;10.17;;;9.10;;
5539;SDS011;2792;52.452;9.752;2023-06-26T01:46:48;10.00;;;8.60;;
5539;SDS011;2792;52.452;9.752;2023-06-26T01:49:20;9.67;;;8.30;;
5539;SDS011;2792;52.452;9.752;2023-06-26T01:51:51;12.30;;;8.70;;
5539;SDS011;2792;52.452;9.752;2023-06-26T01:54:23;9.77;;;8.80;;
5539;SDS011;2792;52.452;9.752;2023-06-26T01:56:52;8.53;;;7.70;;
5539;SDS011;2792;52.452;9.752;2023-06-26T01:59:21;9.93;;;8.20;;
5539;SDS011;2792;52.452;9.752;2023-06-26T02:01:48;9.83;;;8.23;;
5539;SDS011;2792;52.452;9.752;2023-06-26T02:04:14;8.73;;;7.70;;
5539;SDS011;2792;52.452;9.752;2023-06-26T02:06:41;9.03;;;7.87;;
5539;SDS011;2792;52.452;9.752;2023-06-26T02:09:07;9.40;;;8.03;;
5539;SDS011;2792;52.452;9.752;2023-06-26T02:11:34;9.60;;;7.97;;
5539;SDS011;2792;52.452;9.752;2023-06-26T02:14:00;9.17;;;7.83;;
5539;SDS011;2792;52.452;9.752;2023-06-26T02:16:29;8.90;;;7.93;;
5539;SDS011;2792;52.452;9.752;2023-06-26T02:18:55;8.57;;;7.77;;
5539;SDS011;2792;52.452;9.752;2023-06-26T02:21:22;8.17;;;7.40;;
5539;SDS011;2792;52.452;9.752;2023-06-26T02:23:49;8.83;;;7.93;;
5539;SDS011;2792;52.452;9.752;2023-06-26T02:26:15;7.80;;;7.00;;
5539;SDS011;2792;52.452;9.752;2023-06-26T02:28:42;7.90;;;7.10;;
5539;SDS011;2792;52.452;9.752;2023-06-26T02:31:08;7.47;;;6.73;;
5539;SDS011;2792;52.452;9.752;2023-06-26T02:33:36;9.33;;;7.97;;
5539;SDS011;2792;52.452;9.752;2023-06-26T02:36:04;8.47;;;7.30;;
5539;SDS011;2792;52.452;9.752;2023-06-26T02:38:30;8.40;;;7.07;;
5539;SDS011;2792;52.452;9.752;2023-06-26T02:40:57;7.40;;;6.70;;
5539;SDS011;2792;52.452;9.752;2023-06-26T02:43:23;9.90;;;8.23;;
5539;SDS011;2792;52.452;9.752;2023-06-26T02:45:50;9.20;;;7.37;;
5539;SDS011;2792;52.452;9.752;2023-06-26T02:48:16;10.60;;;7.10;;
5539;SDS011;2792;52.452;9.752;2023-06-26T02:50:44;7.57;;;6.77;;
5539;SDS011;2792;52.452;9.752;2023-06-26T02:53:11;10.67;;;6.87;;
5539;SDS011;2792;52.452;9.752;2023-06-26T02:55:38;8.27;;;7.43;;
5539;SDS011;2792;52.452;9.752;2023-06-26T02:58:04;7.43;;;6.73;;
5539;SDS011;2792;52.452;9.752;2023-06-26T03:00:31;7.03;;;6.20;;
5539;SDS011;2792;52.452;9.752;2023-06-26T03:02:58;7.50;;;6.27;;
5539;SDS011;2792;52.452;9.752;2023-06-26T03:05:24;9.90;;;6.50;;
5539;SDS011;2792;52.452;9.752;2023-06-26T03:07:52;7.53;;;6.40;;
5539;SDS011;2792;52.452;9.752;2023-06-26T03:10:19;10.00;;;7.40;;
5539;SDS011;2792;52.452;9.752;2023-06-26T03:12:45;7.43;;;6.63;;
5539;SDS011;2792;52.452;9.752;2023-06-26T03:15:12;8.10;;;6.30;;
5539;SDS011;2792;52.452;9.752;2023-06-26T03:17:38;10.73;;;6.60;;
5539;SDS011;2792;52.452;9.752;2023-06-26T03:20:06;7.10;;;6.37;;
5539;SDS011;2792;52.452;9.752;2023-06-26T03:22:34;7.30;;;6.60;;
5539;SDS011;2792;52.452;9.752;2023-06-26T03:25:02;7.00;;;5.70;;
5539;SDS011;2792;52.452;9.752;2023-06-26T03:27:28;7.17;;;6.47;;
5539;SDS011;2792;52.452;9.752;2023-06-26T03:29:55;6.93;;;6.23;;
5539;SDS011;2792;52.452;9.752;2023-06-26T03:32:21;6.50;;;5.83;;
5539;SDS011;2792;52.452;9.752;2023-06-26T03:34:47;8.20;;;6.07;;
5539;SDS011;2792;52.452;9.752;2023-06-26T03:37:14;7.10;;;6.40;;
5539;SDS011;2792;52.452;9.752;2023-06-26T03:39:41;9.20;;;5.80;;
5539;SDS011;2792;52.452;9.752;2023-06-26T03:42:09;7.20;;;6.20;;
5539;SDS011;2792;52.452;9.752;2023-06-26T03:44:35;9.00;;;6.07;;
5539;SDS011;2792;52.452;9.752;2023-06-26T03:47:02;19.93;;;5.97;;
5539;SDS011;2792;52.452;9.752;2023-06-26T03:49:28;8.10;;;6.03;;
5539;SDS011;2792;52.452;9.752;2023-06-26T03:51:55;6.67;;;5.20;;
5539;SDS011;2792;52.452;9.752;2023-06-26T03:54:21;6.43;;;5.83;;
5539;SDS011;2792;52.452;9.752;2023-06-26T03:56:48;15.00;;;5.93;;
5539;SDS011;2792;52.452;9.752;2023-06-26T03:59:15;5.97;;;5.10;;
5539;SDS011;2792;52.452;9.752;2023-06-26T04:01:42;8.40;;;5.30;;
5539;SDS011;2792;52.452;9.752;2023-06-26T04:04:08;7.53;;;6.00;;
5539;SDS011;2792;52.452;9.752;2023-06-26T04:06:35;8.83;;;5.90;;
5539;SDS011;2792;52.452;9.752;2023-06-26T04:09:01;6.87;;;5.33;;
5539;SDS011;2792;52.452;9.752;2023-06-26T04:11:29;6.10;;;5.50;;
5539;SDS011;2792;52.452;9.752;2023-06-26T04:13:56;5.73;;;4.93;;
5539;SDS011;2792;52.452;9.752;2023-06-26T04:16:25;5.80;;;5.27;;
5539;SDS011;2792;52.452;9.752;2023-06-26T04:18:51;8.27;;;5.90;;
5539;SDS011;2792;52.452;9.752;2023-06-26T04:21:18;8.63;;;5.43;;
5539;SDS011;2792;52.452;9.752;2023-06-26T04:23:45;5.50;;;4.93;;
5539;SDS011;2792;52.452;9.752;2023-06-26T04:26:12;8.10;;;4.93;;
5539;SDS011;2792;52.452;9.752;2023-06-26T04:28:39;7.30;;;5.20;;
5539;SDS011;2792;52.452;9.752;2023-06-26T04:31:06;8.13;;;4.60;;
5539;SDS011;2792;52.452;9.752;2023-06-26T04:33:35;5.43;;;4.27;;
5539;SDS011;2792;52.452;9.752;2023-06-26T04:36:02;6.73;;;5.43;;
5539;SDS011;2792;52.452;9.752;2023-06-26T04:38:29;6.90;;;5.10;;
5539;SDS011;2792;52.452;9.752;2023-06-26T04:40:55;7.87;;;4.63;;
5539;SDS011;2792;52.452;9.752;2023-06-26T04:43:22;7.97;;;4.77;;
5539;SDS011;2792;52.452;9.752;2023-06-26T04:45:48;5.23;;;4.40;;
5539;SDS011;2792;52.452;9.752;2023-06-26T04:48:15;5.27;;;4.30;;
5539;SDS011;2792;52.452;9.752;2023-06-26T04:50:43;5.23;;;4.60;;
5539;SDS011;2792;52.452;9.752;2023-06-26T04:53:17;5.87;;;4.10;;
5539;SDS011;2792;52.452;9.752;2023-06-26T04:55:44;5.90;;;4.90;;
5539;SDS011;2792;52.452;9.752;2023-06-26T04:58:10;5.10;;;4.60;;
5539;SDS011;2792;52.452;9.752;2023-06-26T05:00:37;5.40;;;4.60;;
5539;SDS011;2792;52.452;9.752;2023-06-26T05:03:07;9.53;;;4.83;;
5539;SDS011;2792;52.452;9.752;2023-06-26T05:05:33;5.60;;;4.80;;
5539;SDS011;2792;52.452;9.752;2023-06-26T05:08:12;6.37;;;4.80;;
5539;SDS011;2792;52.452;9.752;2023-06-26T05:10:39;4.40;;;4.00;;
5539;SDS011;2792;52.452;9.752;2023-06-26T05:13:06;4.17;;;3.83;;
5539;SDS011;2792;52.452;9.752;2023-06-26T05:15:32;5.77;;;4.87;;
5539;SDS011;2792;52.452;9.752;2023-06-26T05:17:59;6.60;;;4.43;;
5539;SDS011;2792;52.452;9.752;2023-06-26T05:20:25;6.57;;;4.80;;
5539;SDS011;2792;52.452;9.752;2023-06-26T05:22:52;5.47;;;4.17;;
5539;SDS011;2792;52.452;9.752;2023-06-26T05:25:20;4.30;;;3.90;;
5539;SDS011;2792;52.452;9.752;2023-06-26T05:27:47;5.97;;;4.10;;
5539;SDS011;2792;52.452;9.752;2023-06-26T05:30:14;7.17;;;4.30;;
5539;SDS011;2792;52.452;9.752;2023-06-26T05:32:42;5.40;;;4.87;;
5539;SDS011;2792;52.452;9.752;2023-06-26T05:35:09;5.20;;;4.43;;
5539;SDS011;2792;52.452;9.752;2023-06-26T05:37:36;4.73;;;4.33;;
5539;SDS011;2792;52.452;9.752;2023-06-26T05:40:03;5.00;;;4.60;;
5539;SDS011;2792;52.452;9.752;2023-06-26T05:42:33;6.30;;;4.50;;
5539;SDS011;2792;52.452;9.752;2023-06-26T05:45:00;5.97;;;4.80;;
5539;SDS011;2792;52.452;9.752;2023-06-26T05:47:26;5.37;;;4.00;;
5539;SDS011;2792;52.452;9.752;2023-06-26T05:49:53;4.90;;;4.10;;
5539;SDS011;2792;52.452;9.752;2023-06-26T05:52:20;4.37;;;3.97;;
5539;SDS011;2792;52.452;9.752;2023-06-26T05:54:47;5.20;;;4.57;;
5539;SDS011;2792;52.452;9.752;2023-06-26T05:57:14;5.23;;;4.80;;
5539;SDS011;2792;52.452;9.752;2023-06-26T05:59:43;5.90;;;4.90;;
5539;SDS011;2792;52.452;9.752;2023-06-26T06:02:10;4.90;;;4.40;;
5539;SDS011;2792;52.452;9.752;2023-06-26T06:04:37;4.70;;;4.30;;
5539;SDS011;2792;52.452;9.752;2023-06-26T06:07:04;5.30;;;4.20;;
5539;SDS011;2792;52.452;9.752;2023-06-26T06:09:30;4.40;;;4.00;;
5539;SDS011;2792;52.452;9.752;2023-06-26T06:11:58;11.63;;;5.27;;
5539;SDS011;2792;52.452;9.752;2023-06-26T06:14:24;4.57;;;4.13;;
5539;SDS011;2792;52.452;9.752;2023-06-26T06:16:52;4.83;;;4.30;;
5539;SDS011;2792;52.452;9.752;2023-06-26T06:19:19;9.00;;;4.80;;
5539;SDS011;2792;52.452;9.752;2023-06-26T06:21:45;5.00;;;4.50;;
5539;SDS011;2792;52.452;9.752;2023-06-26T06:24:12;5.50;;;4.63;;
5539;SDS011;2792;52.452;9.752;2023-06-26T06:26:39;6.00;;;4.53;;
5539;SDS011;2792;52.452;9.752;2023-06-26T06:29:05;7.40;;;4.50;;
5539;SDS011;2792;52.452;9.752;2023-06-26T06:31:32;6.00;;;4.90;;
5539;SDS011;2792;52.452;9.752;2023-06-26T06:33:59;6.23;;;4.27;;
5539;SDS011;2792;52.452;9.752;2023-06-26T06:36:26;5.83;;;4.27;;
5539;SDS011;2792;52.452;9.752;2023-06-26T06:38:53;11.67;;;4.73;;
5539;SDS011;2792;52.452;9.752;2023-06-26T06:41:19;5.23;;;4.70;;
5539;SDS011;2792;52.452;9.752;2023-06-26T06:43:46;5.77;;;5.20;;
5539;SDS011;2792;52.452;9.752;2023-06-26T06:46:13;5.43;;;4.80;;
5539;SDS011;2792;52.452;9.752;2023-06-26T06:48:39;6.03;;;4.37;;
5539;SDS011;2792;52.452;9.752;2023-06-26T06:51:07;5.80;;;4.93;;
5539;SDS011;2792;52.452;9.752;2023-06-26T06:53:34;5.13;;;4.57;;
5539;SDS011;2792;52.452;9.752;2023-06-26T06:56:00;5.63;;;5.13;;
5539;SDS011;2792;52.452;9.752;2023-06-26T06:58:27;5.13;;;4.63;;
5539;SDS011;2792;52.452;9.752;2023-06-26T07:00:53;5.20;;;4.70;;
5539;SDS011;2792;52.452;9.752;2023-06-26T07:03:20;5.10;;;4.60;;
5539;SDS011;2792;52.452;9.752;2023-06-26T07:05:47;4.93;;;4.43;;
5539;SDS011;2792;52.452;9.752;2023-06-26T07:08:15;8.30;;;4.80;;
5539;SDS011;2792;52.452;9.752;2023-06-26T07:10:41;5.87;;;5.27;;
5539;SDS011;2792;52.452;9.752;2023-06-26T07:13:08;5.33;;;4.73;;
5539;SDS011;2792;52.452;9.752;2023-06-26T07:15:34;6.27;;;5.27;;
5539;SDS011;2792;52.452;9.752;2023-06-26T07:18:01;5.00;;;4.47;;
5539;SDS011;2792;52.452;9.752;2023-06-26T07:20:27;6.50;;;4.87;;
5539;SDS011;2792;52.452;9.752;2023-06-26T07:22:54;5.63;;;4.60;;
5539;SDS011;2792;52.452;9.752;2023-06-26T07:25:22;4.93;;;4.37;;
5539;SDS011;2792;52.452;9.752;2023-06-26T07:27:48;5.43;;;4.70;;
5539;SDS011;2792;52.452;9.752;2023-06-26T07:30:15;4.77;;;4.37;;
5539;SDS011;2792;52.452;9.752;2023-06-26T07:32:41;5.60;;;5.10;;
5539;SDS011;2792;52.452;9.752;2023-06-26T07:35:10;5.10;;;4.60;;
5539;SDS011;2792;52.452;9.752;2023-06-26T07:37:37;5.67;;;5.17;;
5539;SDS011;2792;52.452;9.752;2023-06-26T07:40:04;6.57;;;4.53;;
5539;SDS011;2792;52.452;9.752;2023-06-26T07:42:32;6.70;;;4.90;;
5539;SDS011;2792;52.452;9.752;2023-06-26T07:44:59;5.23;;;4.83;;
5539;SDS011;2792;52.452;9.752;2023-06-26T07:47:25;5.57;;;4.93;;
5539;SDS011;2792;52.452;9.752;2023-06-26T07:49:52;7.73;;;5.20;;
5539;SDS011;2792;52.452;9.752;2023-06-26T07:52:19;8.10;;;5.37;;
5539;SDS011;2792;52.452;9.752;2023-06-26T07:54:45;5.20;;;4.63;;
5539;SDS011;2792;52.452;9.752;2023-06-26T07:57:12;6.83;;;4.60;;
5539;SDS011;2792;52.452;9.752;2023-06-26T07:59:40;5.83;;;5.20;;
5539;SDS011;2792;52.452;9.752;2023-06-26T08:02:06;5.20;;;4.70;;
5539;SDS011;2792;52.452;9.752;2023-06-26T08:04:33;5.67;;;5.17;;
5539;SDS011;2792;52.452;9.752;2023-06-26T08:07:00;5.47;;;4.90;;
5539;SDS011;2792;52.452;9.752;2023-06-26T08:09:29;5.47;;;4.97;;
5539;SDS011;2792;52.452;9.752;2023-06-26T08:11:56;6.03;;;5.20;;
5539;SDS011;2792;52.452;9.752;2023-06-26T08:14:23;5.40;;;4.90;;
5539;SDS011;2792;52.452;9.752;2023-06-26T08:16:51;8.33;;;5.40;;
5539;SDS011;2792;52.452;9.752;2023-06-26T08:19:17;6.20;;;5.60;;
5539;SDS011;2792;52.452;9.752;2023-06-26T08:21:44;7.20;;;6.43;;
5539;SDS011;2792;52.452;9.752;2023-06-26T08:24:12;5.80;;;5.30;;
5539;SDS011;2792;52.452;9.752;2023-06-26T08:26:41;5.70;;;5.20;;
5539;SDS011;2792;52.452;9.752;2023-06-26T08:29:07;5.73;;;5.10;;
5539;SDS011;2792;52.452;9.752;2023-06-26T08:31:34;6.10;;;5.50;;
5539;SDS011;2792;52.452;9.752;2023-06-26T08:34:02;5.80;;;4.80;;
5539;SDS011;2792;52.452;9.752;2023-06-26T08:36:29;6.13;;;5.53;;
5539;SDS011;2792;52.452;9.752;2023-06-26T08:38:56;7.03;;;5.57;;
5539;SDS011;2792;52.452;9.752;2023-06-26T08:41:22;6.33;;;5.23;;
5539;SDS011;2792;52.452;9.752;2023-06-26T08:43:49;7.13;;;5.60;;
5539;SDS011;2792;52.452;9.752;2023-06-26T08:46:17;7.50;;;5.77;;
5539;SDS011;2792;52.452;9.752;2023-06-26T08:48:45;5.50;;;5.00;;
5539;SDS011;2792;52.452;9.752;2023-06-26T08:51:17;7.50;;;5.70;;
5539;SDS011;2792;52.452;9.752;2023-06-26T08:53:46;5.97;;;5.47;;
5539;SDS011;2792;52.452;9.752;2023-06-26T08:56:17;9.33;;;6.50;;
5539;SDS011;2792;52.452;9.752;2023-06-26T08:58:46;7.20;;;5.90;;
5539;SDS011;2792;52.452;9.752;2023-06-26T09:01:13;6.87;;;5.40;;
5539;SDS011;2792;52.452;9.752;2023-06-26T09:03:39;6.90;;;6.20;;
5539;SDS011;2792;52.452;9.752;2023-06-26T09:06:06;12.00;;;6.97;;
5539;SDS011;2792;52.452;9.752;2023-06-26T09:08:34;10.13;;;6.80;;
5539;SDS011;2792;52.452;9.752;2023-06-26T09:11:01;12.20;;;7.13;;
5539;SDS011;2792;52.452;9.752;2023-06-26T09:13:28;9.57;;;7.20;;
5539;SDS011;2792;52.452;9.752;2023-06-26T09:15:55;8.10;;;7.00;;
5539;SDS011;2792;52.452;9.752;2023-06-26T09:18:22;7.67;;;6.70;;
5539;SDS011;2792;52.452;9.752;2023-06-26T09:20:48;8.00;;;7.20;;
5539;SDS011;2792;52.452;9.752;2023-06-26T09:23:15;7.97;;;6.90;;
5539;SDS011;2792;52.452;9.752;2023-06-26T09:25:44;10.47;;;7.30;;
5539;SDS011;2792;52.452;9.752;2023-06-26T09:28:13;7.10;;;5.87;;
5539;SDS011;2792;52.452;9.752;2023-06-26T09:30:40;9.47;;;6.90;;
5539;SDS011;2792;52.452;9.752;2023-06-26T09:33:13;8.70;;;7.07;;
5539;SDS011;2792;52.452;9.752;2023-06-26T09:35:41;8.70;;;6.63;;
5539;SDS011;2792;52.452;9.752;2023-06-26T09:38:07;10.03;;;8.40;;
5539;SDS011;2792;52.452;9.752;2023-06-26T09:40:34;12.13;;;8.13;;
5539;SDS011;2792;52.452;9.752;2023-06-26T09:43:04;9.10;;;7.40;;
5539;SDS011;2792;52.452;9.752;2023-06-26T09:45:31;11.33;;;8.30;;
5539;SDS011;2792;52.452;9.752;2023-06-26T09:47:59;7.93;;;7.03;;
5539;SDS011;2792;52.452;9.752;2023-06-26T09:50:26;12.93;;;7.47;;
5539;SDS011;2792;52.452;9.752;2023-06-26T09:52:53;10.43;;;7.43;;
5539;SDS011;2792;52.452;9.752;2023-06-26T09:55:19;9.87;;;7.93;;
5539;SDS011;2792;52.452;9.752;2023-06-26T09:57:47;7.87;;;7.07;;
5539;SDS011;2792;52.452;9.752;2023-06-26T10:00:16;29.43;;;8.80;;
5539;SDS011;2792;52.452;9.752;2023-06-26T10:02:44;11.00;;;9.03;;
5539;SDS011;2792;52.452;9.752;2023-06-26T10:05:10;9.73;;;8.73;;
5539;SDS011;2792;52.452;9.752;2023-06-26T10:07:37;12.00;;;9.27;;
5539;SDS011;2792;52.452;9.752;2023-06-26T10:10:04;17.07;;;10.40;;
5539;SDS011;2792;52.452;9.752;2023-06-26T10:12:32;20.00;;;11.17;;
5539;SDS011;2792;52.452;9.752;2023-06-26T10:15:00;14.70;;;9.23;;
5539;SDS011;2792;52.452;9.752;2023-06-26T10:17:32;11.83;;;8.40;;
5539;SDS011;2792;52.452;9.752;2023-06-26T10:20:01;11.23;;;9.00;;
5539;SDS011;2792;52.452;9.752;2023-06-26T10:22:29;14.30;;;7.60;;
5539;SDS011;2792;52.452;9.752;2023-06-26T10:25:02;8.47;;;7.00;;
5539;SDS011;2792;52.452;9.752;2023-06-26T10:27:31;8.70;;;6.33;;
5539;SDS011;2792;52.452;9.752;2023-06-26T10:30:02;11.77;;;7.00;;
5539;SDS011;2792;52.452;9.752;2023-06-26T10:32:31;9.53;;;6.70;;
5539;SDS011;2792;52.452;9.752;2023-06-26T10:34:58;10.77;;;7.47;;
5539;SDS011;2792;52.452;9.752;2023-06-26T10:37:40;13.03;;;9.13;;
5539;SDS011;2792;52.452;9.752;2023-06-26T10:40:07;14.20;;;9.50;;
5539;SDS011;2792;52.452;9.752;2023-06-26T10:42:34;12.90;;;9.40;;
5539;SDS011;2792;52.452;9.752;2023-06-26T10:45:08;12.03;;;9.13;;
5539;SDS011;2792;52.452;9.752;2023-06-26T10:47:36;13.77;;;10.40;;
5539;SDS011;2792;52.452;9.752;2023-06-26T10:50:16;15.77;;;10.40;;
5539;SDS011;2792;52.452;9.752;2023-06-26T10:52:44;12.03;;;8.30;;
5539;SDS011;2792;52.452;9.752;2023-06-26T10:55:10;12.43;;;9.03;;
5539;SDS011;2792;52.452;9.752;2023-06-26T10:57:37;16.73;;;9.97;;
5539;SDS011;2792;52.452;9.752;2023-06-26T11:00:09;15.40;;;10.03;;
5539;SDS011;2792;52.452;9.752;2023-06-26T11:02:48;13.70;;;10.30;;
5539;SDS011;2792;52.452;9.752;2023-06-26T11:05:23;14.37;;;9.90;;
5539;SDS011;2792;52.452;9.752;2023-06-26T11:08:03;12.83;;;10.23;;
5539;SDS011;2792;52.452;9.752;2023-06-26T11:13:16;12.90;;;10.03;;
5539;SDS011;2792;52.452;9.752;2023-06-26T11:15:43;13.70;;;9.83;;
5539;SDS011;2792;52.452;9.752;2023-06-26T11:18:11;14.93;;;9.60;;
5539;SDS011;2792;52.452;9.752;2023-06-26T11:20:38;13.23;;;10.40;;
5539;SDS011;2792;52.452;9.752;2023-06-26T11:23:05;11.37;;;8.73;;
5539;SDS011;2792;52.452;9.752;2023-06-26T11:25:33;13.47;;;10.83;;
5539;SDS011;2792;52.452;9.752;2023-06-26T11:28:01;20.47;;;9.80;;
5539;SDS011;2792;52.452;9.752;2023-06-26T11:30:28;13.13;;;9.40;;
5539;SDS011;2792;52.452;9.752;2023-06-26T11:33:02;15.90;;;9.50;;
5539;SDS011;2792;52.452;9.752;2023-06-26T11:35:30;12.17;;;8.97;;
5539;SDS011;2792;52.452;9.752;2023-06-26T11:37:57;9.30;;;8.30;;
5539;SDS011;2792;52.452;9.752;2023-06-26T11:40:26;11.47;;;8.80;;
5539;SDS011;2792;52.452;9.752;2023-06-26T11:42:55;13.80;;;8.83;;
5539;SDS011;2792;52.452;9.752;2023-06-26T11:45:23;9.90;;;8.70;;
5539;SDS011;2792;52.452;9.752;2023-06-26T11:47:49;11.07;;;8.17;;
5539;SDS011;2792;52.452;9.752;2023-06-26T11:50:17;9.90;;;7.43;;
5539;SDS011;2792;52.452;9.752;2023-06-26T11:52:45;11.87;;;7.43;;
5539;SDS011;2792;52.452;9.752;2023-06-26T11:55:11;7.90;;;6.03;;
5539;SDS011;2792;52.452;9.752;2023-06-26T11:57:38;8.60;;;6.00;;
5539;SDS011;2792;52.452;9.752;2023-06-26T12:00:11;8.90;;;5.30;;
5539;SDS011;2792;52.452;9.752;2023-06-26T12:02:38;10.63;;;6.03;;
5539;SDS011;2792;52.452;9.752;2023-06-26T12:05:05;6.60;;;5.17;;
5539;SDS011;2792;52.452;9.752;2023-06-26T12:07:32;11.13;;;6.47;;
5539;SDS011;2792;52.452;9.752;2023-06-26T12:10:01;5.43;;;4.70;;
5539;SDS011;2792;52.452;9.752;2023-06-26T12:12:28;6.73;;;4.70;;
5539;SDS011;2792;52.452;9.752;2023-06-26T12:14:54;13.17;;;5.60;;
5539;SDS011;2792;52.452;9.752;2023-06-26T12:17:22;8.03;;;5.53;;
5539;SDS011;2792;52.452;9.752;2023-06-26T12:19:50;5.43;;;4.53;;
5539;SDS011;2792;52.452;9.752;2023-06-26T12:22:16;7.03;;;5.00;;
5539;SDS011;2792;52.452;9.752;2023-06-26T12:24:43;7.80;;;4.70;;
5539;SDS011;2792;52.452;9.752;2023-06-26T12:27:12;6.50;;;4.03;;
5539;SDS011;2792;52.452;9.752;2023-06-26T12:29:40;7.80;;;4.33;;
5539;SDS011;2792;52.452;9.752;2023-06-26T12:32:08;7.67;;;4.87;;
5539;SDS011;2792;52.452;9.752;2023-06-26T12:34:36;8.30;;;4.40;;
5539;SDS011;2792;52.452;9.752;2023-06-26T12:37:04;7.90;;;4.07;;
5539;SDS011;2792;52.452;9.752;2023-06-26T12:39:44;8.40;;;4.60;;
5539;SDS011;2792;52.452;9.752;2023-06-26T12:42:14;4.70;;;3.93;;
5539;SDS011;2792;52.452;9.752;2023-06-26T12:44:41;5.80;;;4.27;;
5539;SDS011;2792;52.452;9.752;2023-06-26T12:47:08;6.10;;;3.87;;
5539;SDS011;2792;52.452;9.752;2023-06-26T12:49:35;7.20;;;3.80;;
5539;SDS011;2792;52.452;9.752;2023-06-26T12:52:03;7.30;;;4.20;;
5539;SDS011;2792;52.452;9.752;2023-06-26T12:54:32;5.63;;;3.40;;
5539;SDS011;2792;52.452;9.752;2023-06-26T12:56:59;4.73;;;3.50;;
5539;SDS011;2792;52.452;9.752;2023-06-26T12:59:27;7.00;;;4.07;;
5539;SDS011;2792;52.452;9.752;2023-06-26T13:01:53;8.20;;;3.20;;
5539;SDS011;2792;52.452;9.752;2023-06-26T13:04:20;7.90;;;3.83;;
5539;SDS011;2792;52.452;9.752;2023-06-26T13:06:47;4.03;;;3.40;;
5539;SDS011;2792;52.452;9.752;2023-06-26T13:09:13;8.30;;;3.70;;
5539;SDS011;2792;52.452;9.752;2023-06-26T13:11:40;9.03;;;3.63;;
5539;SDS011;2792;52.452;9.752;2023-06-26T13:14:06;5.20;;;3.47;;
5539;SDS011;2792;52.452;9.752;2023-06-26T13:16:35;7.30;;;2.43;;
5539;SDS011;2792;52.452;9.752;2023-06-26T13:19:02;5.83;;;3.13;;
5539;SDS011;2792;52.452;9.752;2023-06-26T13:21:29;4.70;;;2.53;;
5539;SDS011;2792;52.452;9.752;2023-06-26T13:23:55;4.73;;;2.90;;
5539;SDS011;2792;52.452;9.752;2023-06-26T13:26:23;5.60;;;2.73;;
5539;SDS011;2792;52.452;9.752;2023-06-26T13:28:50;5.03;;;2.23;;
5539;SDS011;2792;52.452;9.752;2023-06-26T13:31:17;3.90;;;2.50;;
5539;SDS011;2792;52.452;9.752;2023-06-26T13:33:46;5.43;;;2.60;;
5539;SDS011;2792;52.452;9.752;2023-06-26T13:36:13;3.50;;;2.63;;
5539;SDS011;2792;52.452;9.752;2023-06-26T13:38:40;6.73;;;2.77;;
5539;SDS011;2792;52.452;9.752;2023-06-26T13:41:06;7.80;;;3.07;;
5539;SDS011;2792;52.452;9.752;2023-06-26T13:43:33;5.20;;;3.43;;
5539;SDS011;2792;52.452;9.752;2023-06-26T13:45:59;9.87;;;3.00;;
5539;SDS011;2792;52.452;9.752;2023-06-26T13:48:26;8.50;;;3.57;;
5539;SDS011;2792;52.452;9.752;2023-06-26T13:50:54;4.47;;;3.00;;
5539;SDS011;2792;52.452;9.752;2023-06-26T13:53:21;5.60;;;3.03;;
5539;SDS011;2792;52.452;9.752;2023-06-26T13:55:47;4.23;;;2.70;;
5539;SDS011;2792;52.452;9.752;2023-06-26T13:58:14;4.20;;;2.47;;
5539;SDS011;2792;52.452;9.752;2023-06-26T14:00:41;3.23;;;2.40;;
5539;SDS011;2792;52.452;9.752;2023-06-26T14:03:09;4.80;;;2.33;;
5539;SDS011;2792;52.452;9.752;2023-06-26T14:05:36;7.23;;;2.57;;
5539;SDS011;2792;52.452;9.752;2023-06-26T14:08:05;4.97;;;2.43;;
5539;SDS011;2792;52.452;9.752;2023-06-26T14:10:33;3.13;;;2.50;;
5539;SDS011;2792;52.452;9.752;2023-06-26T14:12:59;5.90;;;3.10;;
5539;SDS011;2792;52.452;9.752;2023-06-26T14:15:26;4.00;;;2.73;;
5539;SDS011;2792;52.452;9.752;2023-06-26T14:17:53;13.47;;;2.33;;
5539;SDS011;2792;52.452;9.752;2023-06-26T14:20:21;5.43;;;2.63;;
5539;SDS011;2792;52.452;9.752;2023-06-26T14:22:48;5.13;;;2.67;;
5539;SDS011;2792;52.452;9.752;2023-06-26T14:25:16;3.97;;;2.60;;
5539;SDS011;2792;52.452;9.752;2023-06-26T14:27:43;5.30;;;2.40;;
5539;SDS011;2792;52.452;9.752;2023-06-26T14:30:10;4.87;;;2.60;;
5539;SDS011;2792;52.452;9.752;2023-06-26T14:32:37;3.70;;;2.43;;
5539;SDS011;2792;52.452;9.752;2023-06-26T14:35:04;3.37;;;2.10;;
5539;SDS011;2792;52.452;9.752;2023-06-26T14:37:31;9.37;;;2.17;;
5539;SDS011;2792;52.452;9.752;2023-06-26T14:39:57;5.67;;;2.50;;
5539;SDS011;2792;52.452;9.752;2023-06-26T14:42:25;5.93;;;2.33;;
5539;SDS011;2792;52.452;9.752;2023-06-26T14:44:51;3.10;;;1.77;;
5539;SDS011;2792;52.452;9.752;2023-06-26T14:47:18;4.83;;;2.53;;
5539;SDS011;2792;52.452;9.752;2023-06-26T14:49:44;3.43;;;1.83;;
5539;SDS011;2792;52.452;9.752;2023-06-26T14:52:11;5.37;;;1.80;;
5539;SDS011;2792;52.452;9.752;2023-06-26T14:54:38;6.30;;;2.67;;
5539;SDS011;2792;52.452;9.752;2023-06-26T14:57:05;4.77;;;1.90;;
5539;SDS011;2792;52.452;9.752;2023-06-26T14:59:33;6.60;;;2.13;;
5539;SDS011;2792;52.452;9.752;2023-06-26T15:02:00;8.07;;;2.70;;
5539;SDS011;2792;52.452;9.752;2023-06-26T15:04:27;4.33;;;2.10;;
5539;SDS011;2792;52.452;9.752;2023-06-26T15:06:54;2.70;;;1.80;;
5539;SDS011;2792;52.452;9.752;2023-06-26T15:09:22;5.40;;;2.40;;
5539;SDS011;2792;52.452;9.752;2023-06-26T15:11:49;4.67;;;2.80;;
5539;SDS011;2792;52.452;9.752;2023-06-26T15:14:15;8.63;;;2.40;;
5539;SDS011;2792;52.452;9.752;2023-06-26T15:16:43;4.47;;;2.47;;